createdAt,value
2019-03-21T00:01:57.600Z,1.64
2019-03-21T00:04:29.573Z,1.64
2019-03-21T00:07:01.642Z,1.68
2019-03-21T00:09:38.281Z,1.69
2019-03-21T00:12:13.514Z,1.57
2019-03-21T00:14:57.620Z,1.57
2019-03-21T00:17:44.390Z,1.68
2019-03-21T00:20:18.279Z,1.61
2019-03-21T00:22:50.302Z,1.56
2019-03-21T00:25:26.398Z,1.51
2019-03-21T00:27:57.689Z,1.51
2019-03-21T00:30:32.704Z,1.46
2019-03-21T00:33:04.702Z,1.43
2019-03-21T00:35:38.519Z,1.51
2019-03-21T00:38:09.573Z,1.55
2019-03-21T00:40:49.056Z,1.44
2019-03-21T00:43:21.306Z,1.41
2019-03-21T00:45:54.815Z,1.37
2019-03-21T00:48:26.977Z,1.27
2019-03-21T00:50:58.974Z,1.13
2019-03-21T00:53:31.032Z,1.10
2019-03-21T00:56:02.895Z,1.10
2019-03-21T00:58:34.887Z,1.00
2019-03-21T01:01:11.053Z,0.95
2019-03-21T01:03:43.313Z,0.93
2019-03-21T01:06:15.393Z,0.74
2019-03-21T01:08:46.893Z,0.74
2019-03-21T01:11:18.769Z,0.77
2019-03-21T01:13:51.786Z,0.80
2019-03-21T01:16:24.783Z,0.75
2019-03-21T01:18:56.745Z,0.72
2019-03-21T01:21:28.847Z,0.69
2019-03-21T01:24:00.775Z,0.62
2019-03-21T01:26:32.783Z,0.63
2019-03-21T01:29:04.760Z,0.60
2019-03-21T01:31:36.633Z,0.59
2019-03-21T01:34:10.331Z,0.51
2019-03-21T01:36:43.318Z,0.48
2019-03-21T01:39:15.524Z,0.46
2019-03-21T01:41:47.386Z,0.46
2019-03-21T01:44:19.447Z,0.23
2019-03-21T01:46:51.306Z,0.23
2019-03-21T01:49:23.511Z,0.29
2019-03-21T01:51:54.706Z,0.29
2019-03-21T01:54:26.546Z,0.25
2019-03-21T01:56:58.424Z,0.33
2019-03-21T01:59:30.366Z,0.35
2019-03-21T02:02:02.412Z,0.31
2019-03-21T02:06:10.576Z,0.38
2019-03-21T02:08:42.513Z,0.40
2019-03-21T02:11:14.649Z,0.32
2019-03-21T02:13:46.501Z,0.29
2019-03-21T02:16:17.649Z,0.20
2019-03-21T02:18:49.473Z,0.20
2019-03-21T02:21:20.705Z,0.14
2019-03-21T02:23:52.611Z,0.17
2019-03-21T02:26:24.555Z,0.14
2019-03-21T02:28:56.397Z,0.12
2019-03-21T02:31:28.251Z,0.07
2019-03-21T02:34:00.358Z,0.12
2019-03-21T02:36:32.702Z,0.11
2019-03-21T02:39:05.418Z,0.22
2019-03-21T02:41:37.602Z,0.27
2019-03-21T02:44:09.522Z,0.27
2019-03-21T02:46:40.652Z,0.25
2019-03-21T02:49:12.514Z,0.22
2019-03-21T02:51:44.495Z,0.28
2019-03-21T02:54:15.680Z,0.25
2019-03-21T02:56:47.680Z,0.19
2019-03-21T02:59:19.646Z,0.17
2019-03-21T03:01:51.532Z,0.07
2019-03-21T03:04:23.372Z,0.01
2019-03-21T03:06:55.407Z,0.11
2019-03-21T03:09:27.359Z,0.11
2019-03-21T03:11:59.312Z,-0.21
2019-03-21T03:14:31.424Z,-0.19
2019-03-21T03:17:03.395Z,-0.19
2019-03-21T03:19:35.365Z,-0.22
2019-03-21T03:22:07.399Z,-0.21
2019-03-21T03:24:39.387Z,-0.21
2019-03-21T03:27:11.358Z,-0.22
2019-03-21T03:29:43.271Z,-0.14
2019-03-21T03:32:15.301Z,-0.22
2019-03-21T03:34:47.301Z,-0.25
2019-03-21T03:37:19.594Z,-0.25
2019-03-21T03:39:51.420Z,-0.35
2019-03-21T03:42:23.350Z,-0.43
2019-03-21T03:44:55.332Z,-0.49
2019-03-21T03:47:27.443Z,-0.42
2019-03-21T03:49:59.346Z,-0.42
2019-03-21T03:52:31.293Z,-0.50
2019-03-21T03:55:03.305Z,-0.50
2019-03-21T03:57:35.326Z,-0.48
2019-03-21T04:00:11.936Z,-0.48
2019-03-21T04:02:44.118Z,-0.53
2019-03-21T04:05:16.476Z,-0.53
2019-03-21T04:07:48.239Z,-0.49
2019-03-21T04:10:35.263Z,-0.48
2019-03-21T04:13:07.312Z,-0.50
2019-03-21T04:15:51.812Z,-0.69
2019-03-21T04:18:13.338Z,-0.52
2019-03-21T04:20:57.389Z,-0.53
2019-03-21T04:23:28.599Z,-0.53
2019-03-21T04:26:21.494Z,-0.63
2019-03-21T04:28:52.925Z,-0.71
2019-03-21T04:31:24.706Z,-0.78
2019-03-21T04:34:05.895Z,-0.84
2019-03-21T04:36:37.789Z,-0.84
2019-03-21T04:39:11.518Z,-0.87
2019-03-21T04:41:45.725Z,-0.84
2019-03-21T04:44:17.749Z,-0.79
2019-03-21T04:46:49.606Z,-0.81
2019-03-21T04:49:21.518Z,-0.87
2019-03-21T04:51:53.387Z,-0.81
2019-03-21T04:54:24.598Z,-0.86
2019-03-21T04:56:56.504Z,-0.94
2019-03-21T04:59:28.499Z,-0.91
2019-03-21T05:01:59.670Z,-0.63
2019-03-21T05:04:31.639Z,-0.78
2019-03-21T05:07:03.875Z,-0.72
2019-03-21T05:09:36.050Z,-0.77
2019-03-21T05:12:10.285Z,-0.83
2019-03-21T05:14:41.710Z,-0.90
2019-03-21T05:17:13.571Z,-0.86
2019-03-21T05:19:45.525Z,-0.90
2019-03-21T05:22:17.775Z,-0.82
2019-03-21T05:24:50.853Z,-0.88
2019-03-21T05:27:23.474Z,-0.92
2019-03-21T05:29:54.657Z,-0.90
2019-03-21T05:32:26.686Z,-0.96
2019-03-21T05:34:58.643Z,-0.96
2019-03-21T05:37:30.579Z,-1.00
2019-03-21T05:40:02.600Z,-0.96
2019-03-21T05:42:34.581Z,-0.92
2019-03-21T05:45:15.654Z,-0.94
2019-03-21T05:47:48.063Z,-0.92
2019-03-21T05:50:20.380Z,-0.92
2019-03-21T05:52:52.551Z,-0.87
2019-03-21T05:55:26.712Z,-0.80
2019-03-21T05:57:57.718Z,-0.69
2019-03-21T06:00:51.557Z,-0.69
2019-03-21T06:03:36.393Z,-0.58
2019-03-21T06:06:34.314Z,-0.50
2019-03-21T06:09:22.338Z,-0.45
2019-03-21T06:12:05.822Z,-0.30
2019-03-21T06:15:04.292Z,-0.30
2019-03-21T06:17:36.264Z,-0.22
2019-03-21T06:20:56.511Z,0.06
2019-03-21T06:23:41.567Z,0.06
2019-03-21T06:26:28.567Z,0.41
2019-03-21T06:29:00.486Z,0.38
2019-03-21T06:31:31.690Z,0.41
2019-03-21T06:34:03.833Z,0.50
2019-03-21T06:36:36.783Z,0.54
2019-03-21T06:39:10.700Z,0.67
2019-03-21T06:41:42.825Z,0.81
2019-03-21T06:44:14.817Z,0.92
2019-03-21T06:46:49.658Z,1.05
2019-03-21T06:49:21.282Z,1.26
2019-03-21T06:51:53.495Z,1.43
2019-03-21T07:15:46.598Z,2.50
2019-03-21T07:18:18.641Z,2.50
2019-03-21T07:20:50.988Z,2.46
2019-03-21T07:23:24.772Z,2.69
2019-03-21T07:25:56.936Z,2.80
2019-03-21T07:28:29.774Z,2.89
2019-03-21T07:31:01.700Z,2.96
2019-03-21T07:33:35.465Z,3.06
2019-03-21T07:36:06.671Z,3.27
2019-03-21T07:38:38.917Z,3.38
2019-03-21T07:41:11.335Z,3.54
2019-03-21T07:43:43.440Z,3.63
2019-03-21T07:46:15.476Z,3.68
2019-03-21T07:48:46.645Z,3.73
2019-03-21T07:51:18.667Z,3.92
2019-03-21T07:53:50.696Z,3.98
2019-03-21T07:56:24.940Z,4.09
2019-03-21T07:58:58.288Z,4.12
2019-03-21T08:01:30.321Z,4.23
2019-03-21T08:04:03.152Z,4.23
2019-03-21T08:06:37.352Z,4.58
2019-03-21T08:09:11.048Z,4.58
2019-03-21T08:11:43.047Z,4.72
2019-03-21T08:14:18.359Z,4.86
2019-03-21T08:16:50.472Z,4.93
2019-03-21T08:19:24.299Z,5.02
2019-03-21T08:21:56.305Z,5.43
2019-03-21T08:24:28.414Z,5.48
2019-03-21T08:27:00.480Z,5.48
2019-03-21T08:29:33.031Z,5.64
2019-03-21T08:32:06.553Z,5.84
2019-03-21T08:34:38.614Z,6.09
2019-03-21T08:37:12.347Z,6.20
2019-03-21T08:39:44.297Z,6.20
2019-03-21T08:42:16.385Z,6.67
2019-03-21T08:44:51.285Z,6.83
2019-03-21T08:47:23.347Z,6.90
2019-03-21T08:49:55.261Z,6.90
2019-03-21T08:52:27.711Z,7.02
2019-03-21T08:54:59.819Z,7.33
2019-03-21T08:57:31.987Z,7.45
2019-03-21T09:00:09.298Z,7.69
2019-03-21T09:02:41.363Z,8.02
2019-03-21T09:05:15.033Z,8.02
2019-03-21T09:07:47.047Z,8.15
2019-03-21T09:10:21.429Z,8.23
2019-03-21T09:12:53.464Z,8.46
2019-03-21T09:15:25.505Z,8.65
2019-03-21T09:17:57.666Z,8.83
2019-03-21T09:20:30.113Z,8.96
2019-03-21T09:23:02.288Z,9.06
2019-03-21T09:25:34.333Z,9.22
2019-03-21T09:28:06.325Z,9.61
2019-03-21T09:30:38.288Z,9.79
2019-03-21T09:33:11.044Z,9.94
2019-03-21T09:35:43.802Z,9.94
2019-03-21T09:38:16.527Z,9.94
2019-03-21T09:40:51.867Z,9.97
2019-03-21T09:43:24.304Z,10.09
2019-03-21T09:45:57.594Z,10.37
2019-03-21T09:48:30.260Z,10.40
2019-03-21T09:51:06.510Z,10.91
2019-03-21T09:53:38.690Z,10.91
2019-03-21T09:56:11.298Z,10.96
2019-03-21T09:58:44.727Z,11.22
2019-03-21T10:01:18.675Z,11.22
2019-03-21T10:03:51.418Z,11.09
2019-03-21T10:06:26.078Z,11.17
2019-03-21T10:08:58.292Z,11.33
2019-03-21T10:11:30.394Z,11.87
2019-03-21T10:14:02.343Z,11.92
2019-03-21T10:16:36.649Z,12.10
2019-03-21T10:19:08.748Z,12.10
2019-03-21T10:21:43.534Z,12.26
2019-03-21T10:24:14.533Z,12.57
2019-03-21T10:26:47.067Z,12.47
2019-03-21T10:29:19.323Z,12.67
2019-03-21T10:31:51.381Z,13.36
2019-03-21T10:34:23.329Z,13.63
2019-03-21T10:36:55.383Z,13.71
2019-03-21T10:39:29.492Z,13.70
2019-03-21T10:42:01.547Z,13.70
2019-03-21T10:44:33.836Z,13.89
2019-03-21T10:47:05.981Z,14.53
2019-03-21T10:49:38.298Z,14.32
2019-03-21T10:52:12.039Z,14.30
2019-03-21T10:54:45.297Z,14.30
2019-03-21T10:57:17.448Z,14.65
2019-03-21T10:59:49.018Z,14.65
2019-03-21T11:02:21.289Z,14.92
2019-03-21T11:04:53.414Z,14.97
2019-03-21T11:07:23.285Z,14.97
2019-03-21T11:09:55.307Z,14.57
2019-03-21T11:12:30.662Z,15.20
2019-03-21T11:15:03.878Z,15.20
2019-03-21T11:17:36.011Z,15.18
2019-03-21T11:20:09.285Z,15.88
2019-03-21T11:22:41.538Z,15.82
2019-03-21T11:25:13.756Z,15.82
2019-03-21T11:27:45.702Z,15.52
2019-03-21T11:30:35.295Z,15.74
2019-03-21T11:33:07.582Z,15.64
2019-03-21T11:35:40.289Z,15.64
2019-03-21T11:38:12.333Z,15.83
2019-03-21T11:40:44.444Z,16.15
2019-03-21T11:43:15.902Z,16.15
2019-03-21T11:45:48.368Z,16.38
2019-03-21T11:48:19.644Z,16.54
2019-03-21T11:50:54.790Z,16.33
2019-03-21T11:53:26.718Z,15.94
2019-03-21T11:55:59.296Z,16.15
2019-03-21T11:58:31.366Z,16.14
2019-03-21T12:01:04.890Z,16.62
2019-03-21T12:03:37.032Z,16.62
2019-03-21T12:06:09.308Z,16.55
2019-03-21T12:08:41.462Z,17.28
2019-03-21T12:11:12.626Z,17.28
2019-03-21T12:13:44.572Z,17.45
2019-03-21T12:16:16.438Z,16.98
2019-03-21T12:18:48.459Z,16.98
2019-03-21T12:21:19.768Z,17.78
2019-03-21T12:23:51.702Z,19.16
2019-03-21T12:26:23.677Z,19.89
2019-03-21T12:28:55.714Z,20.15
2019-03-21T12:31:27.786Z,20.41
2019-03-21T12:34:00.319Z,21.78
2019-03-21T12:36:34.597Z,23.75
2019-03-21T12:39:09.463Z,23.75
2019-03-21T12:41:40.875Z,24.98
2019-03-21T12:44:14.374Z,26.48
2019-03-21T12:46:45.652Z,27.46
2019-03-21T12:49:17.676Z,28.88
2019-03-21T12:51:51.364Z,28.65
2019-03-21T12:54:22.939Z,28.54
2019-03-21T12:56:54.786Z,28.37
2019-03-21T12:59:26.695Z,29.07
2019-03-21T13:02:00.298Z,30.50
2019-03-21T13:04:32.322Z,28.87
2019-03-21T13:07:05.941Z,28.87
2019-03-21T13:09:37.983Z,31.41
2019-03-21T13:12:10.292Z,30.08
2019-03-21T13:14:41.615Z,30.76
2019-03-21T13:17:13.539Z,30.76
2019-03-21T13:19:45.859Z,29.64
2019-03-21T13:22:17.911Z,30.79
2019-03-21T13:25:06.731Z,30.91
2019-03-21T13:27:38.697Z,29.86
2019-03-21T13:30:13.583Z,32.56
2019-03-21T13:32:47.094Z,34.29
2019-03-21T13:39:03.667Z,33.07
2019-03-21T13:41:38.356Z,33.70
2019-03-21T13:44:10.290Z,28.56
2019-03-21T13:46:54.248Z,31.31
2019-03-21T13:49:27.746Z,31.31
2019-03-21T13:51:59.653Z,32.26
2019-03-21T13:54:31.574Z,32.89
2019-03-21T13:57:03.584Z,33.54
2019-03-21T14:02:29.361Z,29.96
2019-03-21T14:05:10.354Z,29.96
2019-03-21T14:07:41.595Z,32.70
2019-03-21T14:13:21.308Z,31.52
2019-03-21T14:15:53.362Z,31.47
2019-03-21T14:22:07.303Z,34.03
2019-03-21T14:28:05.601Z,32.25
2019-03-21T14:30:37.951Z,32.24
2019-03-21T14:33:09.880Z,32.88
2019-03-21T14:35:43.610Z,29.30
2019-03-21T14:38:25.890Z,28.92
2019-03-21T14:40:49.227Z,32.90
2019-03-21T14:43:21.304Z,32.90
2019-03-21T14:45:53.537Z,31.48
2019-03-21T14:48:29.911Z,31.48
2019-03-21T15:00:17.504Z,34.00
2019-03-21T15:02:49.774Z,34.00
2019-03-21T15:05:21.897Z,35.08
2019-03-21T15:07:53.796Z,34.89
2019-03-21T15:10:26.016Z,34.01
2019-03-21T15:13:00.609Z,31.90
2019-03-21T15:15:32.583Z,30.04
2019-03-21T15:18:04.654Z,32.51
2019-03-21T15:20:37.078Z,33.57
2019-03-21T15:23:09.290Z,34.25
2019-03-21T15:25:41.371Z,34.12
2019-03-21T15:28:13.452Z,34.12
2019-03-21T15:30:46.327Z,32.98
2019-03-21T15:33:18.292Z,32.63
2019-03-21T15:35:51.694Z,32.63
2019-03-21T15:38:23.461Z,32.42
2019-03-21T15:40:55.237Z,32.43
2019-03-21T15:43:27.287Z,30.84
2019-03-21T15:45:59.318Z,30.97
2019-03-21T15:48:31.348Z,29.23
2019-03-21T15:51:04.725Z,30.10
2019-03-21T15:53:37.450Z,30.43
2019-03-21T15:56:09.663Z,30.43
2019-03-21T15:58:41.881Z,26.99
2019-03-21T16:01:13.843Z,28.01
2019-03-21T16:03:45.803Z,27.95
2019-03-21T16:06:17.712Z,27.56
2019-03-21T16:08:49.814Z,26.52
2019-03-21T16:11:22.018Z,26.87
2019-03-21T16:13:54.264Z,26.19
2019-03-21T16:16:26.302Z,24.32
2019-03-21T16:18:58.322Z,25.51
2019-03-21T16:21:30.736Z,25.51
2019-03-21T16:24:05.396Z,24.41
2019-03-21T16:26:36.949Z,24.94
2019-03-21T16:29:10.348Z,24.49
2019-03-21T16:31:42.591Z,24.69
2019-03-21T16:34:14.806Z,25.64
2019-03-21T16:36:48.291Z,25.73
2019-03-21T16:39:20.470Z,24.89
2019-03-21T16:41:51.933Z,24.89
2019-03-21T16:44:24.283Z,23.75
2019-03-21T16:46:56.356Z,24.72
2019-03-21T16:49:28.343Z,24.62
2019-03-21T16:52:00.620Z,23.67
2019-03-21T16:54:32.791Z,23.67
2019-03-21T16:57:08.904Z,23.48
2019-03-21T16:59:41.167Z,22.98
2019-03-21T17:02:13.298Z,22.78
2019-03-21T17:04:45.489Z,21.09
2019-03-21T17:07:16.916Z,21.09
2019-03-21T17:09:49.313Z,19.96
2019-03-21T17:12:23.020Z,18.79
2019-03-21T17:14:55.189Z,18.79
2019-03-21T17:17:30.437Z,18.43
2019-03-21T17:20:03.834Z,18.00
2019-03-21T17:22:36.282Z,17.43
2019-03-21T17:25:09.596Z,17.02
2019-03-21T17:27:41.669Z,17.02
2019-03-21T17:30:16.507Z,16.75
2019-03-21T17:32:48.640Z,16.40
2019-03-21T17:35:22.364Z,16.18
2019-03-21T17:37:55.054Z,15.93
2019-03-21T17:40:27.361Z,15.65
2019-03-21T17:42:59.247Z,15.46
2019-03-21T17:45:32.837Z,15.21
2019-03-21T17:48:05.981Z,15.00
2019-03-21T17:50:38.403Z,14.78
2019-03-21T17:53:10.661Z,14.63
2019-03-21T17:55:42.739Z,14.37
2019-03-21T17:58:14.743Z,14.26
2019-03-21T18:00:47.030Z,14.13
2019-03-21T18:03:19.297Z,13.99
2019-03-21T18:05:52.566Z,13.58
2019-03-21T18:08:24.741Z,13.58
2019-03-21T18:10:57.414Z,13.35
2019-03-21T18:13:29.699Z,13.37
2019-03-21T18:16:01.900Z,13.13
2019-03-21T18:18:33.971Z,12.96
2019-03-21T18:21:06.193Z,12.90
2019-03-21T18:23:38.440Z,12.55
2019-03-21T18:26:09.908Z,12.55
2019-03-21T18:28:42.330Z,12.43
2019-03-21T18:31:14.362Z,12.29
2019-03-21T18:33:46.426Z,12.26
2019-03-21T18:36:17.617Z,12.26
2019-03-21T18:38:58.744Z,12.09
2019-03-21T18:41:23.562Z,12.09
2019-03-21T18:43:55.727Z,11.91
2019-03-21T18:46:27.656Z,11.83
2019-03-21T18:48:59.753Z,11.62
2019-03-21T18:51:31.701Z,11.41
2019-03-21T18:54:04.057Z,11.29
2019-03-21T18:56:36.299Z,11.10
2019-03-21T18:59:08.423Z,10.78
2019-03-21T19:01:39.881Z,10.78
2019-03-21T19:04:12.227Z,10.75
2019-03-21T19:06:44.323Z,10.69
2019-03-21T19:09:16.259Z,10.70
2019-03-21T19:11:48.559Z,10.55
2019-03-21T19:14:20.678Z,10.35
2019-03-21T19:16:52.982Z,10.29
2019-03-21T19:19:25.302Z,10.16
2019-03-21T19:21:57.778Z,10.01
2019-03-21T19:24:31.585Z,10.01
2019-03-21T19:27:03.700Z,9.88
2019-03-21T19:29:36.312Z,9.76
2019-03-21T19:32:08.394Z,9.44
2019-03-21T19:34:40.011Z,9.44
2019-03-21T19:37:12.069Z,9.31
2019-03-21T19:39:45.802Z,9.16
2019-03-21T19:42:18.044Z,9.07
2019-03-21T19:44:54.224Z,8.94
2019-03-21T19:47:30.499Z,8.74
2019-03-21T19:50:03.874Z,8.74
2019-03-21T19:52:40.675Z,8.69
2019-03-21T19:55:30.162Z,8.56
2019-03-21T19:57:55.265Z,8.59
2019-03-21T20:00:29.299Z,8.44
2019-03-21T20:03:05.867Z,8.37
2019-03-21T20:05:40.530Z,8.37
2019-03-21T20:08:12.667Z,8.22
2019-03-21T20:10:44.627Z,8.11
2019-03-21T20:13:16.801Z,8.02
2019-03-21T20:15:49.057Z,7.96
2019-03-21T20:18:24.548Z,7.87
2019-03-21T20:20:58.542Z,7.76
2019-03-21T20:23:30.697Z,7.75
2019-03-21T20:26:04.964Z,7.74
2019-03-21T20:28:39.560Z,7.67
2019-03-21T20:31:11.680Z,7.59
2019-03-21T20:33:45.383Z,7.53
2019-03-21T20:36:16.931Z,7.47
2019-03-21T20:38:49.074Z,7.43
2019-03-21T20:41:21.733Z,7.34
2019-03-21T20:43:54.124Z,7.57
2019-03-21T20:46:26.318Z,7.39
2019-03-21T20:49:01.469Z,7.37
2019-03-21T20:51:36.302Z,7.23
2019-03-21T20:54:08.406Z,6.91
2019-03-21T20:56:42.270Z,6.91
2019-03-21T20:59:17.318Z,6.95
2019-03-21T21:01:49.273Z,6.94
2019-03-21T21:04:22.505Z,6.80
2019-03-21T21:06:54.824Z,6.71
2019-03-21T21:09:27.287Z,6.65
2019-03-21T21:11:59.407Z,6.50
2019-03-21T21:14:31.370Z,6.50
2019-03-21T21:17:03.373Z,6.29
2019-03-21T21:19:35.380Z,6.29
2019-03-21T21:22:07.433Z,6.29
2019-03-21T21:24:39.033Z,6.16
2019-03-21T21:27:10.986Z,6.17
2019-03-21T21:29:44.818Z,6.26
2019-03-21T21:32:30.385Z,6.28
2019-03-21T21:35:09.284Z,6.11
2019-03-21T21:37:45.817Z,6.05
2019-03-21T21:40:19.041Z,5.91
2019-03-21T21:42:52.451Z,5.83
2019-03-21T21:45:23.709Z,5.77
2019-03-21T21:47:55.615Z,5.72
2019-03-21T21:50:27.723Z,5.63
2019-03-21T21:52:59.632Z,5.55
2019-03-21T21:55:31.706Z,5.47
2019-03-21T21:58:04.106Z,5.46
2019-03-21T22:00:36.305Z,5.39
2019-03-21T22:03:08.302Z,5.39
2019-03-21T22:05:40.490Z,5.30
2019-03-21T22:08:12.052Z,5.30
2019-03-21T22:10:43.894Z,5.30
2019-03-21T22:13:15.844Z,5.28
2019-03-21T22:15:48.562Z,5.35
2019-03-21T22:18:20.659Z,5.28
2019-03-21T22:20:52.822Z,5.17
2019-03-21T22:23:24.792Z,5.12
2019-03-21T22:25:56.833Z,5.05
2019-03-21T22:28:28.712Z,4.97
2019-03-21T22:31:00.732Z,4.91
2019-03-21T22:33:34.309Z,4.85
2019-03-21T22:36:06.673Z,4.75
2019-03-21T22:38:46.290Z,4.75
2019-03-21T22:41:27.345Z,4.66
2019-03-21T22:44:03.281Z,4.66
2019-03-21T22:46:54.258Z,4.57
2019-03-21T22:49:26.421Z,4.50
2019-03-21T22:51:58.382Z,4.50
2019-03-21T22:54:30.809Z,4.42
2019-03-21T22:57:04.291Z,4.42
2019-03-21T22:59:36.526Z,4.57
2019-03-21T23:02:10.406Z,4.48
2019-03-21T23:04:41.693Z,4.47
2019-03-21T23:07:16.547Z,4.53
2019-03-21T23:09:48.392Z,4.39
2019-03-21T23:12:20.430Z,4.28
2019-03-21T23:14:52.445Z,4.28
2019-03-21T23:17:30.425Z,4.29
2019-03-21T23:20:06.549Z,4.26
2019-03-21T23:22:41.035Z,4.29
2019-03-21T23:25:17.329Z,4.16
2019-03-21T23:27:49.306Z,4.09
2019-03-21T23:30:20.758Z,4.09
2019-03-21T23:32:52.697Z,4.03
2019-03-21T23:35:25.034Z,3.96
2019-03-21T23:37:57.297Z,3.95
2019-03-21T23:40:29.402Z,3.98
2019-03-21T23:43:02.313Z,3.98
2019-03-21T23:45:34.502Z,3.80
2019-03-21T23:48:08.325Z,3.80
2019-03-21T23:50:40.377Z,3.71
2019-03-21T23:53:12.293Z,3.63
2019-03-21T23:55:44.363Z,3.66
2019-03-21T23:58:15.637Z,3.66
